createdAt,value
2023-05-08T00:00:00.708Z,101260
2023-05-08T00:01:00.603Z,101260
2023-05-08T00:02:00.638Z,101270
2023-05-08T00:03:00.778Z,101260
2023-05-08T00:04:00.737Z,101260
2023-05-08T00:05:00.711Z,101260
2023-05-08T00:06:04.428Z,101260
2023-05-08T00:07:00.624Z,101260
2023-05-08T00:08:00.653Z,101270
2023-05-08T00:09:01.014Z,101270
2023-05-08T00:10:00.646Z,101270
2023-05-08T00:11:00.720Z,101270
2023-05-08T00:12:00.647Z,101270
2023-05-08T00:13:00.703Z,101270
2023-05-08T00:14:00.616Z,101270
2023-05-08T00:15:01.636Z,101270
2023-05-08T00:16:00.598Z,101270
2023-05-08T00:17:00.714Z,101270
2023-05-08T00:18:00.692Z,101270
2023-05-08T00:19:00.640Z,101270
2023-05-08T00:20:00.634Z,101270
2023-05-08T00:21:00.632Z,101270
2023-05-08T00:22:00.627Z,101270
2023-05-08T00:23:00.604Z,101270
2023-05-08T00:24:00.701Z,101270
2023-05-08T00:25:00.789Z,101270
2023-05-08T00:26:00.678Z,101270
2023-05-08T00:27:00.635Z,101270
2023-05-08T00:28:00.810Z,101270
2023-05-08T00:29:00.757Z,101270
2023-05-08T00:30:00.641Z,101270
2023-05-08T00:31:00.786Z,101270
2023-05-08T00:32:01.122Z,101270
2023-05-08T00:33:00.720Z,101270
2023-05-08T00:34:00.638Z,101270
2023-05-08T00:35:00.731Z,101270
2023-05-08T00:36:01.937Z,101270
2023-05-08T00:37:00.785Z,101260
2023-05-08T00:38:00.621Z,101270
2023-05-08T00:39:00.629Z,101270
2023-05-08T00:40:00.683Z,101270
2023-05-08T00:41:01.523Z,101270
2023-05-08T00:42:00.652Z,101270
2023-05-08T00:43:00.600Z,101270
2023-05-08T00:44:00.713Z,101270
2023-05-08T00:45:00.697Z,101270
2023-05-08T00:46:01.017Z,101270
2023-05-08T00:47:01.241Z,101270
2023-05-08T00:48:01.061Z,101270
2023-05-08T00:49:01.814Z,101270
2023-05-08T00:50:01.542Z,101270
2023-05-08T00:51:03.959Z,101270
2023-05-08T00:52:02.356Z,101270
2023-05-08T00:53:01.964Z,101270
2023-05-08T00:54:00.947Z,101270
2023-05-08T00:55:03.307Z,101270
2023-05-08T00:56:00.946Z,101270
2023-05-08T00:57:02.734Z,101270
2023-05-08T00:58:00.755Z,101270
2023-05-08T00:59:01.678Z,101270
2023-05-08T01:00:02.386Z,101270
2023-05-08T01:01:01.077Z,101270
2023-05-08T01:02:01.206Z,101280
2023-05-08T01:03:00.972Z,101270
2023-05-08T01:04:01.517Z,101270
2023-05-08T01:05:01.669Z,101270
2023-05-08T01:06:01.870Z,101270
2023-05-08T01:07:01.636Z,101270
2023-05-08T01:08:00.945Z,101270
2023-05-08T01:09:00.642Z,101280
2023-05-08T01:10:00.879Z,101280
2023-05-08T01:11:20.521Z,101280
2023-05-08T01:12:09.516Z,101280
2023-05-08T01:13:16.633Z,101280
2023-05-08T01:14:10.572Z,101280
2023-05-08T01:15:13.241Z,101280
2023-05-08T01:16:10.850Z,101280
2023-05-08T01:17:11.317Z,101280
2023-05-08T01:18:06.708Z,101280
2023-05-08T01:19:16.132Z,101280
2023-05-08T01:20:11.768Z,101280
2023-05-08T01:21:16.606Z,101280
2023-05-08T01:22:11.612Z,101280
2023-05-08T01:23:11.636Z,101280
2023-05-08T01:24:18.915Z,101280
2023-05-08T01:25:10.578Z,101280
2023-05-08T01:26:10.562Z,101280
2023-05-08T01:27:20.557Z,101290
2023-05-08T01:28:20.540Z,101290
2023-05-08T01:29:10.577Z,101280
2023-05-08T01:30:10.719Z,101290
2023-05-08T01:31:10.787Z,101280
2023-05-08T01:32:10.592Z,101290
2023-05-08T01:33:07.246Z,101280
2023-05-08T01:34:20.757Z,101280
2023-05-08T01:35:16.388Z,101290
2023-05-08T01:36:14.743Z,101290
2023-05-08T01:37:04.712Z,101290
2023-05-08T01:38:03.888Z,101280
2023-05-08T01:39:08.966Z,101290
2023-05-08T01:40:08.584Z,101280
2023-05-08T01:41:13.362Z,101280
2023-05-08T01:42:20.535Z,101290
2023-05-08T01:43:20.554Z,101290
2023-05-08T01:44:14.339Z,101290
2023-05-08T01:45:04.224Z,101290
2023-05-08T01:46:07.454Z,101290
2023-05-08T01:47:05.622Z,101290
2023-05-08T01:48:06.856Z,101290
2023-05-08T01:49:11.188Z,101290
2023-05-08T01:50:10.732Z,101290
2023-05-08T01:51:04.539Z,101290
2023-05-08T01:52:20.559Z,101280
2023-05-08T01:53:08.479Z,101290
2023-05-08T01:54:07.360Z,101290
2023-05-08T01:55:03.962Z,101290
2023-05-08T01:56:08.335Z,101290
2023-05-08T01:57:02.336Z,101290
2023-05-08T01:58:06.136Z,101290
2023-05-08T01:59:03.098Z,101290
2023-05-08T02:00:03.646Z,101290
2023-05-08T02:01:01.593Z,101290
2023-05-08T02:02:01.704Z,101290
2023-05-08T02:03:01.454Z,101290
2023-05-08T02:04:02.201Z,101290
2023-05-08T02:05:05.137Z,101300
2023-05-08T02:06:01.601Z,101300
2023-05-08T02:07:01.945Z,101300
2023-05-08T02:08:02.111Z,101300
2023-05-08T02:09:01.405Z,101290
2023-05-08T02:10:02.847Z,101300
2023-05-08T02:11:02.996Z,101300
2023-05-08T02:12:02.299Z,101290
2023-05-08T02:13:02.983Z,101300
2023-05-08T02:14:02.106Z,101300
2023-05-08T02:15:01.881Z,101300
2023-05-08T02:16:02.284Z,101300
2023-05-08T02:17:01.741Z,101300
2023-05-08T02:18:03.080Z,101300
2023-05-08T02:19:02.094Z,101300
2023-05-08T02:20:01.772Z,101300
2023-05-08T02:21:03.630Z,101300
2023-05-08T02:22:02.111Z,101300
2023-05-08T02:23:01.232Z,101310
2023-05-08T02:24:01.992Z,101310
2023-05-08T02:25:01.159Z,101310
2023-05-08T02:26:02.802Z,101310
2023-05-08T02:27:01.602Z,101310
2023-05-08T02:28:01.847Z,101310
2023-05-08T02:29:02.359Z,101310
2023-05-08T02:30:00.948Z,101310
2023-05-08T02:31:00.807Z,101310
2023-05-08T02:32:02.748Z,101310
2023-05-08T02:33:02.656Z,101310
2023-05-08T02:34:02.699Z,101310
2023-05-08T02:35:03.589Z,101310
2023-05-08T02:36:01.776Z,101310
2023-05-08T02:37:02.135Z,101320
2023-05-08T02:38:01.648Z,101310
2023-05-08T02:39:01.866Z,101320
2023-05-08T02:40:03.179Z,101310
2023-05-08T02:41:03.445Z,101320
2023-05-08T02:42:00.769Z,101320
2023-05-08T02:43:00.733Z,101320
2023-05-08T02:44:00.689Z,101320
2023-05-08T02:45:02.380Z,101320
2023-05-08T02:46:14.194Z,101320
2023-05-08T02:47:13.885Z,101320
2023-05-08T02:48:10.907Z,101330
2023-05-08T02:49:06.127Z,101330
2023-05-08T02:50:10.213Z,101330
2023-05-08T02:51:17.195Z,101330
2023-05-08T02:52:10.285Z,101330
2023-05-08T02:53:05.351Z,101330
2023-05-08T02:54:08.337Z,101330
2023-05-08T02:55:10.127Z,101330
2023-05-08T02:56:08.809Z,101330
2023-05-08T02:57:09.518Z,101340
2023-05-08T02:58:09.489Z,101330
2023-05-08T02:59:20.550Z,101340
2023-05-08T03:00:05.051Z,101330
2023-05-08T03:01:04.426Z,101330
2023-05-08T03:02:09.572Z,101330
2023-05-08T03:03:06.911Z,101330
2023-05-08T03:04:06.699Z,101330
2023-05-08T03:05:07.320Z,101330
2023-05-08T03:06:02.324Z,101330
2023-05-08T03:07:03.073Z,101330
2023-05-08T03:08:07.345Z,101330
2023-05-08T03:09:01.823Z,101330
2023-05-08T03:10:06.002Z,101330
2023-05-08T03:11:08.161Z,101330
2023-05-08T03:12:05.232Z,101330
2023-05-08T03:13:03.860Z,101340
2023-05-08T03:14:02.226Z,101330
2023-05-08T03:15:09.805Z,101330
2023-05-08T03:16:02.473Z,101330
2023-05-08T03:17:05.201Z,101340
2023-05-08T03:18:06.741Z,101340
2023-05-08T03:19:04.526Z,101340
2023-05-08T03:20:06.943Z,101340
2023-05-08T03:21:01.372Z,101340
2023-05-08T03:22:03.055Z,101340
2023-05-08T03:23:02.417Z,101340
2023-05-08T03:24:03.323Z,101340
2023-05-08T03:25:03.568Z,101340
2023-05-08T03:26:02.154Z,101340
2023-05-08T03:27:02.013Z,101340
2023-05-08T03:28:03.170Z,101340
2023-05-08T03:29:01.709Z,101330
2023-05-08T03:30:01.000Z,101340
2023-05-08T03:31:01.852Z,101340
2023-05-08T03:32:01.658Z,101340
2023-05-08T03:33:03.200Z,101340
2023-05-08T03:34:03.477Z,101340
2023-05-08T03:35:02.456Z,101340
2023-05-08T03:36:00.997Z,101340
2023-05-08T03:37:00.840Z,101340
2023-05-08T03:38:00.965Z,101340
2023-05-08T03:39:01.285Z,101340
2023-05-08T03:40:00.907Z,101340
2023-05-08T03:41:00.899Z,101340
2023-05-08T03:42:00.742Z,101340
2023-05-08T03:43:00.764Z,101340
2023-05-08T03:44:02.317Z,101340
2023-05-08T03:45:02.313Z,101340
2023-05-08T03:46:01.024Z,101340
2023-05-08T03:47:02.152Z,101340
2023-05-08T03:48:02.493Z,101340
2023-05-08T03:49:03.396Z,101340
2023-05-08T03:50:01.642Z,101340
2023-05-08T03:51:01.848Z,101340
2023-05-08T03:52:01.370Z,101350
2023-05-08T03:53:00.818Z,101340
2023-05-08T03:54:00.611Z,101350
2023-05-08T03:55:00.658Z,101350
2023-05-08T03:56:01.151Z,101350
2023-05-08T03:57:00.655Z,101350
2023-05-08T03:58:20.527Z,101350
2023-05-08T03:59:15.793Z,101350
2023-05-08T04:00:06.520Z,101350
2023-05-08T04:01:06.682Z,101350
2023-05-08T04:02:16.470Z,101350
2023-05-08T04:03:20.601Z,101350
2023-05-08T04:04:20.750Z,101360
2023-05-08T04:05:13.418Z,101360
2023-05-08T04:06:16.093Z,101360
2023-05-08T04:07:06.723Z,101350
2023-05-08T04:08:08.527Z,101360
2023-05-08T04:09:04.480Z,101360
2023-05-08T04:10:10.913Z,101360
2023-05-08T04:11:10.582Z,101360
2023-05-08T04:12:19.703Z,101360
2023-05-08T04:13:07.820Z,101350
2023-05-08T04:14:03.476Z,101360
2023-05-08T04:15:06.530Z,101360
2023-05-08T04:16:06.063Z,101360
2023-05-08T04:17:04.724Z,101360
2023-05-08T04:18:07.968Z,101360
2023-05-08T04:19:01.968Z,101360
2023-05-08T04:20:03.793Z,101350
2023-05-08T04:21:02.334Z,101360
2023-05-08T04:22:05.373Z,101360
2023-05-08T04:23:02.732Z,101360
2023-05-08T04:24:03.073Z,101360
2023-05-08T04:25:04.336Z,101370
2023-05-08T04:26:03.341Z,101370
2023-05-08T04:27:01.916Z,101360
2023-05-08T04:28:01.016Z,101360
2023-05-08T04:29:01.063Z,101380
2023-05-08T04:30:01.474Z,101370
2023-05-08T04:31:02.515Z,101370
2023-05-08T04:32:02.655Z,101370
2023-05-08T04:33:03.054Z,101370
2023-05-08T04:34:02.141Z,101370
2023-05-08T04:35:01.500Z,101380
2023-05-08T04:36:01.578Z,101380
2023-05-08T04:37:00.786Z,101380
2023-05-08T04:38:01.287Z,101380
2023-05-08T04:39:00.700Z,101380
2023-05-08T04:40:01.184Z,101380
2023-05-08T04:41:00.664Z,101380
2023-05-08T04:42:00.608Z,101390
2023-05-08T04:43:00.771Z,101390
2023-05-08T04:44:02.741Z,101390
2023-05-08T04:45:00.781Z,101390
2023-05-08T04:46:00.790Z,101390
2023-05-08T04:47:00.613Z,101390
2023-05-08T04:48:00.659Z,101390
2023-05-08T04:49:00.659Z,101390
2023-05-08T04:50:02.683Z,101390
2023-05-08T04:51:00.647Z,101400
2023-05-08T04:52:00.636Z,101390
2023-05-08T04:53:00.616Z,101400
2023-05-08T04:54:00.628Z,101390
2023-05-08T04:55:00.738Z,101390
2023-05-08T04:56:00.625Z,101400
2023-05-08T04:57:00.696Z,101400
2023-05-08T04:58:00.616Z,101400
2023-05-08T04:59:00.628Z,101390
2023-05-08T05:00:00.796Z,101390
2023-05-08T05:01:01.880Z,101400
2023-05-08T05:02:00.733Z,101400
2023-05-08T05:03:00.708Z,101400
2023-05-08T05:04:00.680Z,101400
2023-05-08T05:05:00.628Z,101400
2023-05-08T05:06:00.833Z,101400
2023-05-08T05:07:01.557Z,101400
2023-05-08T05:08:00.650Z,101400
2023-05-08T05:09:00.631Z,101400
2023-05-08T05:10:00.700Z,101400
2023-05-08T05:11:00.617Z,101400
2023-05-08T05:12:00.827Z,101410
2023-05-08T05:13:00.650Z,101410
2023-05-08T05:14:00.649Z,101400
2023-05-08T05:15:00.619Z,101400
2023-05-08T05:16:00.669Z,101400
2023-05-08T05:17:00.640Z,101410
2023-05-08T05:18:00.701Z,101400
2023-05-08T05:19:00.680Z,101410
2023-05-08T05:20:00.691Z,101410
2023-05-08T05:21:00.635Z,101410
2023-05-08T05:22:00.673Z,101410
2023-05-08T05:23:00.682Z,101410
2023-05-08T05:24:00.650Z,101400
2023-05-08T05:25:00.625Z,101400
2023-05-08T05:26:00.619Z,101410
2023-05-08T05:27:02.027Z,101410
2023-05-08T05:28:00.610Z,101410
2023-05-08T05:29:00.627Z,101410
2023-05-08T05:30:00.649Z,101410
2023-05-08T05:31:00.804Z,101410
2023-05-08T05:32:01.009Z,101400
2023-05-08T05:33:00.677Z,101400
2023-05-08T05:34:00.703Z,101400
2023-05-08T05:35:00.632Z,101400
2023-05-08T05:36:00.761Z,101400
2023-05-08T05:37:00.668Z,101410
2023-05-08T05:38:00.621Z,101410
2023-05-08T05:39:00.651Z,101400
2023-05-08T05:40:00.736Z,101400
2023-05-08T05:41:00.617Z,101400
2023-05-08T05:42:00.637Z,101410
2023-05-08T05:43:00.656Z,101400
2023-05-08T05:44:00.848Z,101400
2023-05-08T05:45:00.676Z,101400
2023-05-08T05:46:08.914Z,101400
2023-05-08T05:47:00.630Z,101400
2023-05-08T05:48:01.255Z,101400
2023-05-08T05:49:00.650Z,101390
2023-05-08T05:50:00.646Z,101400
2023-05-08T05:51:01.089Z,101400
2023-05-08T05:52:00.635Z,101400
2023-05-08T05:53:00.607Z,101400
2023-05-08T05:54:00.637Z,101400
2023-05-08T05:55:00.633Z,101410
2023-05-08T05:56:00.626Z,101400
2023-05-08T05:57:00.619Z,101410
2023-05-08T05:58:00.650Z,101410
2023-05-08T05:59:00.684Z,101410
2023-05-08T06:00:00.620Z,101410
2023-05-08T06:01:00.654Z,101410
2023-05-08T06:02:00.710Z,101410
2023-05-08T06:03:01.037Z,101410
2023-05-08T06:04:00.727Z,101410
2023-05-08T06:05:00.665Z,101410
2023-05-08T06:06:00.613Z,101410
2023-05-08T06:07:00.640Z,101410
2023-05-08T06:08:00.631Z,101410
2023-05-08T06:09:00.655Z,101410
2023-05-08T06:10:00.836Z,101410
2023-05-08T06:11:00.591Z,101410
2023-05-08T06:12:00.744Z,101410
2023-05-08T06:13:00.677Z,101400
2023-05-08T06:14:00.641Z,101410
2023-05-08T06:15:00.649Z,101410
2023-05-08T06:16:00.645Z,101410
2023-05-08T06:17:00.662Z,101420
2023-05-08T06:18:00.752Z,101410
2023-05-08T06:19:00.625Z,101420
2023-05-08T06:20:00.698Z,101420
2023-05-08T06:21:00.671Z,101420
2023-05-08T06:22:00.613Z,101420
2023-05-08T06:23:00.611Z,101420
2023-05-08T06:24:00.602Z,101420
2023-05-08T06:25:00.702Z,101420
2023-05-08T06:26:00.639Z,101420
2023-05-08T06:27:00.921Z,101420
2023-05-08T06:28:00.643Z,101420
2023-05-08T06:29:00.665Z,101420
2023-05-08T06:30:01.297Z,101430
2023-05-08T06:31:00.646Z,101430
2023-05-08T06:32:00.693Z,101420
2023-05-08T06:33:00.709Z,101430
2023-05-08T06:34:00.624Z,101430
2023-05-08T06:35:00.652Z,101430
2023-05-08T06:36:00.659Z,101440
2023-05-08T06:37:00.654Z,101420
2023-05-08T06:38:00.668Z,101440
2023-05-08T06:39:02.865Z,101420
2023-05-08T06:40:11.619Z,101420
2023-05-08T06:41:00.660Z,101430
2023-05-08T06:42:00.736Z,101430
2023-05-08T06:43:00.635Z,101430
2023-05-08T06:44:00.658Z,101440
2023-05-08T06:45:00.792Z,101430
2023-05-08T06:46:00.780Z,101430
2023-05-08T06:47:01.043Z,101440
2023-05-08T06:48:00.684Z,101430
2023-05-08T06:49:00.625Z,101430
2023-05-08T06:50:00.686Z,101420
2023-05-08T06:51:00.646Z,101430
2023-05-08T06:52:00.862Z,101430
2023-05-08T06:53:00.627Z,101430
2023-05-08T06:54:00.660Z,101440
2023-05-08T06:55:00.616Z,101430
2023-05-08T06:56:00.679Z,101430
2023-05-08T06:57:00.621Z,101430
2023-05-08T06:58:00.636Z,101430
2023-05-08T06:59:08.532Z,101440
2023-05-08T07:00:00.748Z,101430
2023-05-08T07:01:00.677Z,101440
2023-05-08T07:02:00.743Z,101440
2023-05-08T07:03:00.636Z,101430
2023-05-08T07:04:00.630Z,101430
2023-05-08T07:05:00.709Z,101440
2023-05-08T07:06:00.608Z,101430
2023-05-08T07:07:00.668Z,101430
2023-05-08T07:08:00.636Z,101440
2023-05-08T07:09:00.744Z,101450
2023-05-08T07:10:00.705Z,101440
2023-05-08T07:11:00.708Z,101440
2023-05-08T07:12:00.636Z,101440
2023-05-08T07:13:00.729Z,101440
2023-05-08T07:14:00.681Z,101440
2023-05-08T07:15:05.546Z,101440
2023-05-08T07:16:00.762Z,101440
2023-05-08T07:17:03.012Z,101440
2023-05-08T07:18:00.849Z,101450
2023-05-08T07:19:00.655Z,101450
2023-05-08T07:20:00.622Z,101440
2023-05-08T07:21:00.617Z,101450
2023-05-08T07:22:00.845Z,101430
2023-05-08T07:23:00.765Z,101440
2023-05-08T07:24:00.901Z,101440
2023-05-08T07:25:00.658Z,101440
2023-05-08T07:26:00.651Z,101440
2023-05-08T07:27:00.678Z,101440
2023-05-08T07:28:01.548Z,101440
2023-05-08T07:29:00.611Z,101450
2023-05-08T07:30:00.689Z,101440
2023-05-08T07:31:03.157Z,101440
2023-05-08T07:32:01.210Z,101440
2023-05-08T07:33:00.744Z,101440
2023-05-08T07:34:00.620Z,101450
2023-05-08T07:35:01.507Z,101440
2023-05-08T07:36:00.623Z,101440
2023-05-08T07:37:00.698Z,101450
2023-05-08T07:38:00.620Z,101440
2023-05-08T07:39:00.615Z,101440
2023-05-08T07:40:00.615Z,101440
2023-05-08T07:41:00.670Z,101440
2023-05-08T07:42:00.633Z,101430
2023-05-08T07:43:00.664Z,101440
2023-05-08T07:44:00.605Z,101450
2023-05-08T07:45:00.603Z,101450
2023-05-08T07:46:00.698Z,101440
2023-05-08T07:47:00.677Z,101450
2023-05-08T07:48:00.760Z,101440
2023-05-08T07:49:00.729Z,101440
2023-05-08T07:50:00.896Z,101440
2023-05-08T07:51:00.609Z,101430
2023-05-08T07:52:00.639Z,101430
2023-05-08T07:53:00.613Z,101440
2023-05-08T07:54:00.638Z,101440
2023-05-08T07:55:00.644Z,101430
2023-05-08T07:56:00.639Z,101440
2023-05-08T07:57:00.629Z,101440
2023-05-08T07:58:00.686Z,101440
2023-05-08T07:59:00.636Z,101440
2023-05-08T08:00:01.080Z,101440
2023-05-08T08:01:00.640Z,101430
2023-05-08T08:02:00.641Z,101440
2023-05-08T08:03:00.738Z,101430
2023-05-08T08:04:00.730Z,101440
2023-05-08T08:05:00.828Z,101440
2023-05-08T08:06:00.647Z,101430
2023-05-08T08:07:01.648Z,101440
2023-05-08T08:08:00.738Z,101430
2023-05-08T08:09:00.621Z,101440
2023-05-08T08:10:02.020Z,101440
2023-05-08T08:11:02.306Z,101430
2023-05-08T08:12:00.611Z,101440
2023-05-08T08:13:00.729Z,101430
2023-05-08T08:14:00.637Z,101440
2023-05-08T08:15:00.876Z,101440
2023-05-08T08:16:00.775Z,101430
2023-05-08T08:17:00.681Z,101440
2023-05-08T08:18:00.710Z,101450
2023-05-08T08:19:00.628Z,101450
2023-05-08T08:20:00.670Z,101440
2023-05-08T08:21:03.373Z,101440
2023-05-08T08:22:00.792Z,101440
2023-05-08T08:23:00.630Z,101450
2023-05-08T08:24:00.604Z,101440
2023-05-08T08:25:00.696Z,101430
2023-05-08T08:26:00.626Z,101440
2023-05-08T08:27:00.724Z,101440
2023-05-08T08:28:00.617Z,101430
2023-05-08T08:29:00.627Z,101430
2023-05-08T08:30:12.813Z,101430
2023-05-08T08:31:00.647Z,101440
2023-05-08T08:32:00.666Z,101440
2023-05-08T08:33:00.682Z,101430
2023-05-08T08:34:00.638Z,101410
2023-05-08T08:35:00.624Z,101420
2023-05-08T08:36:00.639Z,101420
2023-05-08T08:37:00.737Z,101430
2023-05-08T08:38:00.621Z,101430
2023-05-08T08:39:00.626Z,101430
2023-05-08T08:40:00.617Z,101430
2023-05-08T08:41:00.638Z,101420
2023-05-08T08:42:01.065Z,101430
2023-05-08T08:43:00.668Z,101440
2023-05-08T08:44:00.726Z,101430
2023-05-08T08:45:01.011Z,101420
2023-05-08T08:46:10.480Z,101430
2023-05-08T08:47:01.704Z,101420
2023-05-08T08:48:02.188Z,101420
2023-05-08T08:49:03.227Z,101420
2023-05-08T08:50:03.049Z,101410
2023-05-08T08:51:05.626Z,101410
2023-05-08T08:52:10.316Z,101410
2023-05-08T08:53:18.683Z,101420
2023-05-08T08:54:12.632Z,101410
2023-05-08T08:55:01.867Z,101410
2023-05-08T08:56:03.602Z,101420
2023-05-08T08:57:05.086Z,101430
2023-05-08T08:58:13.840Z,101430
2023-05-08T08:59:00.984Z,101410
2023-05-08T09:00:02.791Z,101410
2023-05-08T09:01:01.781Z,101420
2023-05-08T09:02:07.841Z,101410
2023-05-08T09:03:01.112Z,101410
2023-05-08T09:04:01.623Z,101420
2023-05-08T09:05:02.286Z,101410
2023-05-08T09:06:01.540Z,101420
2023-05-08T09:07:00.856Z,101410
2023-05-08T09:08:00.622Z,101410
2023-05-08T09:09:01.205Z,101410
2023-05-08T09:10:01.524Z,101430
2023-05-08T09:11:01.527Z,101420
2023-05-08T09:12:00.684Z,101410
2023-05-08T09:13:01.938Z,101410
2023-05-08T09:14:00.999Z,101420
2023-05-08T09:15:00.690Z,101410
2023-05-08T09:16:00.952Z,101410
2023-05-08T09:17:00.830Z,101400
2023-05-08T09:18:01.109Z,101400
2023-05-08T09:19:02.241Z,101420
2023-05-08T09:20:00.976Z,101410
2023-05-08T09:21:00.837Z,101410
2023-05-08T09:22:02.778Z,101420
2023-05-08T09:23:00.729Z,101410
2023-05-08T09:24:02.645Z,101410
2023-05-08T09:25:00.785Z,101410
2023-05-08T09:26:00.636Z,101400
2023-05-08T09:27:00.614Z,101400
2023-05-08T09:28:18.812Z,101420
2023-05-08T09:29:11.881Z,101410
2023-05-08T09:30:02.959Z,101420
2023-05-08T09:31:00.642Z,101420
2023-05-08T09:32:00.719Z,101430
2023-05-08T09:33:00.842Z,101430
2023-05-08T09:34:00.687Z,101430
2023-05-08T09:35:01.721Z,101430
2023-05-08T09:36:00.628Z,101420
2023-05-08T09:37:04.092Z,101420
2023-05-08T09:38:00.599Z,101420
2023-05-08T09:39:01.763Z,101420
2023-05-08T09:40:12.650Z,101420
2023-05-08T09:41:05.345Z,101420
2023-05-08T09:42:02.574Z,101420
2023-05-08T09:43:11.377Z,101420
2023-05-08T09:44:03.372Z,101430
2023-05-08T09:45:00.645Z,101430
2023-05-08T09:46:18.045Z,101420
2023-05-08T09:47:09.062Z,101420
2023-05-08T09:48:00.632Z,101420
2023-05-08T09:49:02.054Z,101420
2023-05-08T09:50:05.139Z,101410
2023-05-08T09:51:07.967Z,101420
2023-05-08T09:52:00.800Z,101410
2023-05-08T09:53:00.660Z,101420
2023-05-08T09:54:00.643Z,101420
2023-05-08T09:55:05.659Z,101420
2023-05-08T09:56:00.659Z,101420
2023-05-08T09:57:09.917Z,101420
2023-05-08T09:58:00.724Z,101420
2023-05-08T09:59:03.540Z,101410
2023-05-08T10:00:05.086Z,101420
2023-05-08T10:01:00.724Z,101430
2023-05-08T10:02:09.367Z,101430
2023-05-08T10:03:02.033Z,101420
2023-05-08T10:04:01.664Z,101420
2023-05-08T10:05:01.590Z,101410
2023-05-08T10:06:11.050Z,101410
2023-05-08T10:07:01.708Z,101410
2023-05-08T10:08:19.083Z,101400
2023-05-08T10:09:10.157Z,101410
2023-05-08T10:10:02.973Z,101410
2023-05-08T10:11:14.497Z,101410
2023-05-08T10:12:00.611Z,101420
2023-05-08T10:13:00.653Z,101410
2023-05-08T10:14:00.746Z,101410
2023-05-08T10:15:00.631Z,101400
2023-05-08T10:16:01.265Z,101400
2023-05-08T10:17:07.847Z,101400
2023-05-08T10:18:04.497Z,101420
2023-05-08T10:19:07.576Z,101400
2023-05-08T10:20:06.342Z,101400
2023-05-08T10:21:05.696Z,101410
2023-05-08T10:22:02.959Z,101420
2023-05-08T10:23:01.936Z,101410
2023-05-08T10:24:04.493Z,101410
2023-05-08T10:25:02.178Z,101400
2023-05-08T10:26:09.585Z,101410
2023-05-08T10:27:11.424Z,101410
2023-05-08T10:28:20.559Z,101410
2023-05-08T10:29:16.105Z,101400
2023-05-08T10:30:02.479Z,101400
2023-05-08T10:31:02.641Z,101400
2023-05-08T10:32:01.914Z,101390
2023-05-08T10:33:02.348Z,101390
2023-05-08T10:34:02.281Z,101380
2023-05-08T10:35:02.426Z,101400
2023-05-08T10:36:00.796Z,101390
2023-05-08T10:37:00.699Z,101370
2023-05-08T10:38:02.649Z,101380
2023-05-08T10:39:00.974Z,101400
2023-05-08T10:40:02.357Z,101390
2023-05-08T10:41:01.338Z,101380
2023-05-08T10:42:01.500Z,101390
2023-05-08T10:43:02.305Z,101380
2023-05-08T10:44:03.223Z,101390
2023-05-08T10:45:04.031Z,101380
2023-05-08T10:46:08.341Z,101370
2023-05-08T10:47:09.869Z,101380
2023-05-08T10:48:07.571Z,101380
2023-05-08T10:49:13.850Z,101370
2023-05-08T10:50:09.900Z,101370
2023-05-08T10:51:07.020Z,101380
2023-05-08T10:52:11.602Z,101390
2023-05-08T10:53:06.302Z,101380
2023-05-08T10:54:07.613Z,101390
2023-05-08T10:55:13.897Z,101390
2023-05-08T10:56:00.828Z,101380
2023-05-08T10:57:10.969Z,101380
2023-05-08T10:58:01.437Z,101380
2023-05-08T10:59:00.675Z,101370
2023-05-08T11:00:00.654Z,101380
2023-05-08T11:01:00.650Z,101380
2023-05-08T11:02:04.101Z,101380
2023-05-08T11:03:06.052Z,101370
2023-05-08T11:04:00.850Z,101370
2023-05-08T11:05:17.811Z,101370
2023-05-08T11:06:00.681Z,101370
2023-05-08T11:07:00.780Z,101360
2023-05-08T11:08:00.634Z,101370
2023-05-08T11:09:01.108Z,101370
2023-05-08T11:10:06.069Z,101370
2023-05-08T11:11:15.109Z,101370
2023-05-08T11:12:06.543Z,101370
2023-05-08T11:13:01.015Z,101370
2023-05-08T11:14:08.063Z,101370
2023-05-08T11:15:03.624Z,101360
2023-05-08T11:16:01.431Z,101360
2023-05-08T11:17:00.624Z,101360
2023-05-08T11:18:03.570Z,101380
2023-05-08T11:19:18.697Z,101370
2023-05-08T11:20:02.977Z,101360
2023-05-08T11:21:04.309Z,101360
2023-05-08T11:22:11.561Z,101360
2023-05-08T11:23:20.554Z,101360
2023-05-08T11:24:09.489Z,101360
2023-05-08T11:25:05.669Z,101360
2023-05-08T11:26:03.788Z,101350
2023-05-08T11:27:00.617Z,101360
2023-05-08T11:28:03.873Z,101360
2023-05-08T11:29:00.649Z,101370
2023-05-08T11:30:18.622Z,101370
2023-05-08T11:31:06.013Z,101360
2023-05-08T11:32:00.777Z,101350
2023-05-08T11:33:04.216Z,101360
2023-05-08T11:34:00.690Z,101360
2023-05-08T11:35:00.630Z,101370
2023-05-08T11:36:12.113Z,101360
2023-05-08T11:37:01.100Z,101350
2023-05-08T11:38:12.987Z,101360
2023-05-08T11:39:09.376Z,101360
2023-05-08T11:40:20.522Z,101360
2023-05-08T11:41:06.288Z,101350
2023-05-08T11:42:20.525Z,101350
2023-05-08T11:43:18.662Z,101360
2023-05-08T11:44:01.628Z,101350
2023-05-08T11:45:03.995Z,101340
2023-05-08T11:46:03.210Z,101350
2023-05-08T11:47:02.401Z,101350
2023-05-08T11:48:00.687Z,101340
2023-05-08T11:49:00.662Z,101350
2023-05-08T11:50:01.163Z,101340
2023-05-08T11:51:01.968Z,101350
2023-05-08T11:52:01.117Z,101350
2023-05-08T11:53:00.685Z,101350
2023-05-08T11:54:01.355Z,101350
2023-05-08T11:55:05.434Z,101350
2023-05-08T11:56:01.213Z,101350
2023-05-08T11:57:00.658Z,101350
2023-05-08T11:58:00.655Z,101340
2023-05-08T11:59:02.140Z,101350
2023-05-08T12:00:09.878Z,101370
2023-05-08T12:01:00.689Z,101340
2023-05-08T12:02:08.581Z,101360
2023-05-08T12:03:06.040Z,101350
2023-05-08T12:04:03.776Z,101350
2023-05-08T12:05:00.732Z,101350
2023-05-08T12:06:00.666Z,101350
2023-05-08T12:07:00.810Z,101350
2023-05-08T12:08:01.780Z,101340
2023-05-08T12:09:01.198Z,101350
2023-05-08T12:10:01.657Z,101330
2023-05-08T12:11:00.611Z,101330
2023-05-08T12:12:00.605Z,101350
2023-05-08T12:13:00.654Z,101330
2023-05-08T12:14:00.638Z,101320
2023-05-08T12:15:00.648Z,101340
2023-05-08T12:16:00.620Z,101340
2023-05-08T12:17:01.851Z,101340
2023-05-08T12:18:00.677Z,101340
2023-05-08T12:19:00.622Z,101340
2023-05-08T12:20:08.671Z,101340
2023-05-08T12:21:00.841Z,101340
2023-05-08T12:22:00.646Z,101340
2023-05-08T12:23:02.217Z,101350
2023-05-08T12:24:04.963Z,101340
2023-05-08T12:25:02.228Z,101340
2023-05-08T12:26:01.090Z,101330
2023-05-08T12:27:00.815Z,101350
2023-05-08T12:28:00.646Z,101340